Time;durP1;ratioP1;P1;durP2;ratioP2;P2;SDS_P1;SDS_P2;PMS_P1;PMS_P2;Temp;Humidity;BMP_temperature;BMP_pressure;BME280_temperature;BME280_humidity;BME280_pressure;Samples;Min_cycle;Max_cycle;Signal;HPM_P1;HPM_P2
2021/07/04 00:00:49;;;;;;;3.67;2.47;;;21.20;90.70;;;;;;5013300;28;20486;-74
2021/07/04 00:03:15;;;;;;;4.32;2.15;;;21.20;90.70;;;;;;5018379;28;20116;-73
2021/07/04 00:05:45;;;;;;;4.43;2.30;;;21.20;90.90;;;;;;5018245;28;20073;-73
2021/07/04 00:08:13;;;;;;;3.30;2.30;;;21.20;91.00;;;;;;5018416;28;20025;-73
2021/07/04 00:10:47;;;;;;;8.13;2.47;;;21.20;91.10;;;;;;5018590;28;20034;-73
2021/07/04 00:13:13;;;;;;;4.03;2.05;;;21.20;91.20;;;;;;5018462;28;20492;-73
2021/07/04 00:15:41;;;;;;;3.58;2.53;;;21.10;91.50;;;;;;5018384;28;20033;-73
2021/07/04 00:18:13;;;;;;;4.45;2.50;;;21.10;91.70;;;;;;5018355;28;20105;-73
2021/07/04 00:20:39;;;;;;;2.85;2.33;;;21.10;91.80;;;;;;5018566;28;20054;-73
2021/07/04 00:23:05;;;;;;;2.75;1.88;;;21.10;91.90;;;;;;5018328;28;20100;-73
2021/07/04 00:25:31;;;;;;;3.72;2.60;;;21.10;91.90;;;;;;5018205;28;20501;-73
2021/07/04 00:27:58;;;;;;;4.65;2.20;;;21.10;92.00;;;;;;5018385;28;20033;-73
2021/07/04 00:30:25;;;;;;;4.30;2.22;;;21.10;92.20;;;;;;5018462;28;20026;-73
2021/07/04 00:32:51;;;;;;;4.78;2.40;;;21.10;92.20;;;;;;5018235;28;20378;-73
2021/07/04 00:35:19;;;;;;;3.47;2.20;;;21.00;92.70;;;;;;5018341;28;20490;-73
2021/07/04 00:37:46;;;;;;;7.75;2.63;;;21.00;93.00;;;;;;5018412;28;20107;-73
2021/07/04 00:40:12;;;;;;;4.78;3.15;;;20.90;93.30;;;;;;5018286;28;20561;-73
2021/07/04 00:42:39;;;;;;;4.78;2.40;;;20.80;93.70;;;;;;5018324;28;20393;-73
2021/07/04 00:45:08;;;;;;;4.88;2.90;;;20.80;94.00;;;;;;5000428;28;20092;-73
2021/07/04 00:47:34;;;;;;;3.65;2.42;;;20.80;94.60;;;;;;5018493;28;20084;-73
2021/07/04 00:50:00;;;;;;;2.90;2.45;;;20.80;94.50;;;;;;5018394;28;20052;-73
2021/07/04 00:52:26;;;;;;;4.72;2.40;;;20.80;94.80;;;;;;5017781;28;20025;-73
2021/07/04 00:54:52;;;;;;;4.72;2.75;;;20.70;95.20;;;;;;5018099;28;20413;-73
2021/07/04 00:57:18;;;;;;;4.43;2.50;;;20.70;95.40;;;;;;5018013;28;20076;-73
2021/07/04 00:59:43;;;;;;;4.95;2.55;;;20.70;95.50;;;;;;5018233;28;20022;-73
2021/07/04 01:02:09;;;;;;;4.80;2.78;;;20.60;95.80;;;;;;5017950;28;20065;-73
2021/07/04 01:04:35;;;;;;;6.90;2.90;;;20.50;95.90;;;;;;5017859;28;20121;-73
2021/07/04 01:07:01;;;;;;;3.92;2.58;;;20.50;96.30;;;;;;5017937;28;20025;-73
2021/07/04 01:09:26;;;;;;;7.07;2.95;;;20.40;96.80;;;;;;5018343;28;20053;-73
2021/07/04 01:11:52;;;;;;;7.13;2.58;;;20.30;96.90;;;;;;5017573;28;20022;-73
2021/07/04 01:14:18;;;;;;;4.75;2.80;;;20.30;97.10;;;;;;5014070;28;20076;-73
2021/07/04 01:16:44;;;;;;;7.07;2.42;;;20.30;97.30;;;;;;5015050;28;20386;-73
2021/07/04 01:52:50;;;;;;;4.18;2.85;;;20.10;99.90;;;;;;5815153;23;20050;-72
2021/07/04 01:55:16;;;;;;;6.63;3.28;;;20.10;99.90;;;;;;5014481;28;20037;-72
2021/07/04 01:57:44;;;;;;;4.57;3.20;;;20.10;99.90;;;;;;5014173;28;20113;-72
2021/07/04 02:00:31;;;;;;;6.30;2.90;;;20.10;99.90;;;;;;5014058;28;20045;-73
2021/07/04 02:02:59;;;;;;;3.97;3.33;;;20.10;99.90;;;;;;5013891;28;20032;-73
2021/07/04 02:05:26;;;;;;;3.55;3.17;;;20.20;99.90;;;;;;5013963;28;20045;-73
2021/07/04 02:07:52;;;;;;;5.97;2.70;;;20.20;99.90;;;;;;5013789;28;20026;-73
2021/07/04 02:10:23;;;;;;;3.40;2.75;;;20.10;99.90;;;;;;5013868;28;20394;-73
2021/07/04 02:12:50;;;;;;;5.57;3.10;;;20.20;99.90;;;;;;4996183;28;20030;-73
2021/07/04 02:15:25;;;;;;;8.45;3.15;;;20.20;99.90;;;;;;5013765;28;20076;-73
2021/07/04 02:17:51;;;;;;;3.60;3.20;;;20.20;99.90;;;;;;5013742;28;20030;-73
2021/07/04 02:20:38;;;;;;;7.65;3.65;;;20.10;99.90;;;;;;5013927;28;20057;-73
2021/07/04 02:23:05;;;;;;;5.85;3.10;;;20.10;99.90;;;;;;5013999;28;20032;-73
2021/07/04 02:25:31;;;;;;;8.48;2.92;;;20.10;99.90;;;;;;5013471;28;20396;-73
2021/07/04 02:27:57;;;;;;;4.80;3.13;;;20.00;99.90;;;;;;5013429;28;20340;-73
2021/07/04 02:30:24;;;;;;;4.47;2.83;;;20.00;99.90;;;;;;5013516;28;20033;-73
2021/07/04 02:32:50;;;;;;;7.18;3.15;;;20.10;99.90;;;;;;5013322;28;20053;-73
2021/07/04 02:35:17;;;;;;;4.63;2.88;;;20.10;99.90;;;;;;5013635;28;20111;-73
2021/07/04 02:37:43;;;;;;;4.38;2.92;;;20.20;99.90;;;;;;5013425;28;20022;-73
2021/07/04 02:40:09;;;;;;;4.18;3.13;;;20.20;99.90;;;;;;5013172;28;20061;-73
2021/07/04 02:42:35;;;;;;;4.85;3.10;;;20.20;99.90;;;;;;5013303;28;20025;-73
2021/07/04 02:45:01;;;;;;;5.43;2.88;;;20.30;99.90;;;;;;5013012;28;20109;-73
2021/07/04 02:47:28;;;;;;;4.53;3.33;;;20.40;99.90;;;;;;5013318;28;20596;-73
2021/07/04 02:49:54;;;;;;;3.55;2.83;;;20.40;99.90;;;;;;5013204;28;20018;-73
2021/07/04 02:52:20;;;;;;;6.10;3.17;;;20.60;99.90;;;;;;5012844;28;20030;-73
2021/07/04 02:54:45;;;;;;;3.90;3.03;;;20.70;99.90;;;;;;5012967;28;20040;-73
2021/07/04 02:57:11;;;;;;;4.32;3.10;;;21.00;99.90;;;;;;5013059;28;20025;-73
2021/07/04 02:59:37;;;;;;;6.22;3.10;;;21.20;99.90;;;;;;5013161;28;20057;-73
2021/07/04 03:02:04;;;;;;;5.95;3.47;;;21.30;99.90;;;;;;5012901;28;20503;-73
2021/07/04 03:04:30;;;;;;;3.72;2.72;;;21.40;99.90;;;;;;5012623;28;20439;-73
2021/07/04 03:06:57;;;;;;;3.65;2.88;;;21.40;99.90;;;;;;5012994;28;20053;-73
2021/07/04 03:09:23;;;;;;;6.03;2.85;;;21.30;99.90;;;;;;5013031;28;20045;-73
2021/07/04 03:11:51;;;;;;;3.30;2.72;;;21.40;99.90;;;;;;5012532;28;20578;-73
2021/07/04 03:14:17;;;;;;;5.05;2.80;;;21.40;99.90;;;;;;5012919;28;20124;-73
2021/07/04 03:16:43;;;;;;;4.03;2.65;;;21.50;99.80;;;;;;5012877;28;20537;-73
2021/07/04 03:19:09;;;;;;;7.05;3.45;;;21.60;99.90;;;;;;5012436;28;20109;-73
2021/07/04 03:21:34;;;;;;;3.72;2.60;;;21.60;99.90;;;;;;5012908;28;20105;-73
2021/07/04 03:24:00;;;;;;;3.33;2.72;;;21.70;99.90;;;;;;5012269;28;20026;-73
2021/07/04 03:26:26;;;;;;;3.70;2.53;;;21.90;99.90;;;;;;5012580;28;20034;-73
2021/07/04 03:28:52;;;;;;;4.00;2.75;;;22.20;99.60;;;;;;5012243;28;20527;-73
2021/07/04 03:31:17;;;;;;;4.30;2.92;;;22.50;99.20;;;;;;5012834;28;20025;-73
2021/07/04 03:33:43;;;;;;;3.22;2.50;;;22.80;98.80;;;;;;5012562;28;20026;-73
2021/07/04 03:36:09;;;;;;;4.70;2.60;;;23.00;98.30;;;;;;5011710;28;20030;-73
2021/07/04 03:38:35;;;;;;;6.13;3.00;;;23.20;97.60;;;;;;5012380;28;20026;-73
2021/07/04 03:41:00;;;;;;;5.60;3.30;;;23.40;96.90;;;;;;4994633;28;20036;-73
2021/07/04 03:43:26;;;;;;;4.38;3.17;;;23.70;96.10;;;;;;5012252;28;20045;-73
2021/07/04 03:45:52;;;;;;;5.88;3.13;;;24.00;95.10;;;;;;5012789;28;20069;-73
2021/07/04 03:48:18;;;;;;;4.20;3.22;;;24.10;94.30;;;;;;5012317;28;20469;-73
2021/07/04 03:50:45;;;;;;;6.05;2.83;;;24.40;93.70;;;;;;5012220;28;20117;-73
2021/07/04 03:53:11;;;;;;;4.20;2.88;;;24.60;93.10;;;;;;5011882;28;20505;-73
2021/07/04 03:55:36;;;;;;;5.10;2.80;;;24.70;92.70;;;;;;5012137;28;20033;-73
2021/07/04 03:58:03;;;;;;;3.17;2.80;;;25.00;91.80;;;;;;5012330;28;20140;-73
2021/07/04 04:00:29;;;;;;;5.90;3.00;;;25.20;90.90;;;;;;5012420;28;20064;-73
2021/07/04 04:02:54;;;;;;;4.95;3.03;;;25.40;89.60;;;;;;5012286;28;20422;-73
2021/07/04 04:05:20;;;;;;;3.75;3.13;;;25.60;86.90;;;;;;4994424;28;20362;-73
2021/07/04 04:07:46;;;;;;;4.38;2.97;;;25.90;84.30;;;;;;5012399;28;20030;-73
2021/07/04 04:10:13;;;;;;;4.25;3.22;;;26.00;83.40;;;;;;5012103;28;20021;-73
2021/07/04 04:12:39;;;;;;;7.10;2.92;;;26.30;80.40;;;;;;5012333;28;20092;-73
2021/07/04 04:15:07;;;;;;;3.60;2.92;;;26.50;77.10;;;;;;5012062;28;20028;-73
2021/07/04 04:17:32;;;;;;;5.43;2.72;;;26.70;74.90;;;;;;5011972;28;20449;-73
2021/07/04 04:19:58;;;;;;;3.17;2.72;;;26.90;73.90;;;;;;5011976;28;20065;-73
2021/07/04 04:22:24;;;;;;;4.78;2.67;;;27.20;72.30;;;;;;5012159;28;20026;-73
2021/07/04 04:24:50;;;;;;;4.80;2.78;;;27.40;70.30;;;;;;5011974;28;20052;-73
2021/07/04 04:27:16;;;;;;;5.35;2.58;;;27.50;70.10;;;;;;5011844;28;20422;-73
2021/07/04 04:29:42;;;;;;;3.28;2.50;;;27.60;69.10;;;;;;5012033;28;20091;-73
2021/07/04 04:32:08;;;;;;;2.88;2.45;;;27.80;68.40;;;;;;5011628;28;20478;-73
2021/07/04 04:34:34;;;;;;;2.72;2.30;;;28.00;67.40;;;;;;5011717;28;20033;-73
2021/07/04 04:37:04;;;;;;;3.75;2.55;;;28.20;66.00;;;;;;5011900;28;20026;-73
2021/07/04 04:39:30;;;;;;;4.50;2.90;;;28.30;66.00;;;;;;5011719;28;20585;-73
2021/07/04 04:41:56;;;;;;;4.00;2.38;;;28.50;64.80;;;;;;5011578;28;20121;-73
2021/07/04 04:44:21;;;;;;;2.80;2.30;;;28.70;64.10;;;;;;5011583;28;20026;-73
2021/07/04 04:46:47;;;;;;;3.25;2.53;;;29.20;62.50;;;;;;5011943;28;20045;-73
2021/07/04 04:49:13;;;;;;;3.40;2.33;;;29.50;61.10;;;;;;5015195;28;20029;-73
2021/07/04 04:51:39;;;;;;;4.22;2.83;;;29.70;60.70;;;;;;5015474;28;20100;-73
2021/07/04 04:54:05;;;;;;;2.45;2.25;;;30.00;59.60;;;;;;5014815;28;20053;-73
2021/07/04 04:56:32;;;;;;;4.05;2.30;;;30.10;58.40;;;;;;5015268;28;20029;-73
2021/07/04 04:58:57;;;;;;;2.42;1.98;;;30.20;57.40;;;;;;5015062;28;20025;-73
2021/07/04 05:01:26;;;;;;;3.20;2.00;;;30.20;57.20;;;;;;5015214;28;20026;-74
2021/07/04 05:03:52;;;;;;;3.43;2.40;;;30.20;56.70;;;;;;5015077;28;20511;-73
2021/07/04 05:06:18;;;;;;;4.05;2.50;;;30.40;56.30;;;;;;5015650;28;20034;-73
2021/07/04 05:08:44;;;;;;;4.60;2.10;;;30.60;55.30;;;;;;5015017;28;20018;-73
2021/07/04 05:11:10;;;;;;;3.00;2.33;;;30.90;55.40;;;;;;5015254;28;20061;-74
2021/07/04 05:13:37;;;;;;;2.83;2.50;;;31.20;54.50;;;;;;5014899;28;20494;-73
2021/07/04 05:16:05;;;;;;;4.70;2.65;;;31.40;54.30;;;;;;5014841;28;20061;-74
2021/07/04 05:18:31;;;;;;;5.40;2.15;;;31.70;54.40;;;;;;5014816;28;20026;-74
2021/07/04 05:20:57;;;;;;;2.58;2.33;;;31.80;54.20;;;;;;4997185;28;20026;-73
2021/07/04 05:23:23;;;;;;;3.75;2.42;;;31.90;54.20;;;;;;5014788;28;20496;-74
2021/07/04 05:25:49;;;;;;;2.75;2.47;;;32.00;53.80;;;;;;5014656;28;20037;-74
2021/07/04 05:28:16;;;;;;;2.42;2.13;;;32.20;52.60;;;;;;5014921;28;20038;-74
2021/07/04 05:30:42;;;;;;;4.35;2.40;;;32.40;52.20;;;;;;5014542;28;20478;-74
2021/07/04 05:33:08;;;;;;;4.32;2.20;;;32.60;52.60;;;;;;5014421;28;20030;-74
2021/07/04 05:35:34;;;;;;;6.25;2.17;;;32.70;52.10;;;;;;5014457;28;20030;-74
2021/07/04 05:38:00;;;;;;;2.58;2.10;;;32.80;52.00;;;;;;5014475;28;20022;-74
2021/07/04 05:40:26;;;;;;;2.70;2.38;;;32.90;51.20;;;;;;5014439;28;20030;-74
2021/07/04 05:42:53;;;;;;;3.60;2.35;;;33.10;50.50;;;;;;5014723;28;20030;-74
2021/07/04 05:45:26;;;;;;;4.47;2.40;;;33.10;50.00;;;;;;5014331;28;20109;-74
2021/07/04 05:47:53;;;;;;;3.17;2.63;;;33.30;50.40;;;;;;5014308;28;20625;-74
2021/07/04 05:50:19;;;;;;;3.15;2.17;;;33.50;50.20;;;;;;5014095;28;20018;-74
2021/07/04 05:52:46;;;;;;;2.92;2.20;;;33.60;49.30;;;;;;5014223;28;20046;-73
2021/07/04 05:55:13;;;;;;;4.30;2.40;;;33.60;50.00;;;;;;5014218;28;20234;-74
2021/07/04 05:57:39;;;;;;;3.08;2.40;;;33.60;50.60;;;;;;5014402;28;20025;-74
2021/07/04 06:00:07;;;;;;;3.08;2.25;;;33.60;49.20;;;;;;5013236;28;20392;-74
2021/07/04 06:02:33;;;;;;;2.45;2.13;;;33.70;49.70;;;;;;5014107;28;20029;-74
2021/07/04 06:04:59;;;;;;;3.25;2.28;;;33.70;50.20;;;;;;5013946;28;20034;-74
2021/07/04 06:07:24;;;;;;;3.53;2.42;;;33.70;49.30;;;;;;5013869;28;20030;-74
2021/07/04 06:09:50;;;;;;;3.15;2.28;;;33.90;49.20;;;;;;5014171;28;20033;-74
2021/07/04 06:12:16;;;;;;;3.30;2.08;;;34.10;49.30;;;;;;5013965;28;20434;-74
2021/07/04 06:14:42;;;;;;;2.65;2.35;;;34.00;48.70;;;;;;5013664;28;20030;-74
2021/07/04 06:17:07;;;;;;;2.75;2.30;;;34.00;48.70;;;;;;5013729;28;20117;-74
2021/07/04 06:19:33;;;;;;;3.83;2.25;;;34.00;48.90;;;;;;5013917;28;20050;-74
2021/07/04 06:21:59;;;;;;;2.10;1.90;;;34.10;48.00;;;;;;5013889;28;20575;-74
2021/07/04 06:24:25;;;;;;;3.58;2.33;;;34.30;47.60;;;;;;5013853;28;20681;-74
2021/07/04 06:26:51;;;;;;;2.20;1.85;;;34.30;47.90;;;;;;5013538;28;20057;-74
2021/07/04 06:29:16;;;;;;;2.67;1.80;;;34.30;47.80;;;;;;5013593;28;20030;-74
2021/07/04 06:31:42;;;;;;;3.40;1.70;;;34.40;47.30;;;;;;5013749;28;20040;-74
2021/07/04 06:34:08;;;;;;;3.25;2.10;;;34.30;47.40;;;;;;5013721;28;20018;-74
2021/07/04 06:36:34;;;;;;;2.72;2.05;;;34.40;47.80;;;;;;5013494;28;20517;-74
2021/07/04 06:38:59;;;;;;;2.15;1.92;;;34.50;47.30;;;;;;5013389;28;20030;-74
2021/07/04 06:41:26;;;;;;;2.60;1.95;;;34.50;47.10;;;;;;5013743;28;20480;-74
2021/07/04 06:43:52;;;;;;;2.65;1.98;;;34.50;46.70;;;;;;5013136;28;20061;-74
2021/07/04 06:46:18;;;;;;;4.68;1.90;;;34.50;48.20;;;;;;5013109;28;20462;-74
2021/07/04 06:48:44;;;;;;;2.83;2.05;;;34.50;47.40;;;;;;4995629;28;20057;-74
2021/07/04 06:51:10;;;;;;;4.00;2.35;;;34.40;48.00;;;;;;5012945;28;20059;-74
2021/07/04 06:53:36;;;;;;;2.70;1.85;;;34.40;47.50;;;;;;5012970;28;20104;-74
2021/07/04 06:56:03;;;;;;;3.17;2.15;;;34.30;48.10;;;;;;5013113;28;20076;-74
2021/07/04 06:58:29;;;;;;;2.20;1.58;;;34.30;47.00;;;;;;5013007;28;20022;-74
2021/07/04 07:00:55;;;;;;;1.63;1.52;;;34.30;45.60;;;;;;5012935;28;20085;-74
2021/07/04 07:03:21;;;;;;;1.75;1.63;;;34.10;45.60;;;;;;5012766;28;20029;-74
2021/07/04 07:05:46;;;;;;;2.45;1.75;;;34.00;44.70;;;;;;5013016;28;20045;-74
2021/07/04 07:08:12;;;;;;;3.97;1.92;;;34.00;45.00;;;;;;5012764;28;20496;-74
2021/07/04 07:10:38;;;;;;;2.00;1.60;;;34.10;44.70;;;;;;5011823;28;20025;-74
2021/07/04 07:13:04;;;;;;;3.38;1.90;;;34.10;44.80;;;;;;5012619;28;20259;-74
2021/07/04 07:15:30;;;;;;;1.95;1.60;;;34.00;44.50;;;;;;5012924;28;20018;-74
2021/07/04 07:17:56;;;;;;;2.55;1.48;;;33.90;44.60;;;;;;5012977;28;20030;-74
2021/07/04 07:20:24;;;;;;;2.30;1.70;;;33.80;44.70;;;;;;5012721;28;20080;-74
2021/07/04 07:22:50;;;;;;;2.65;1.73;;;33.70;45.00;;;;;;5012838;28;20029;-74
2021/07/04 07:25:16;;;;;;;2.10;1.80;;;33.50;44.60;;;;;;5012227;28;20389;-74
2021/07/04 07:27:42;;;;;;;2.90;1.85;;;33.40;44.90;;;;;;5012619;28;20033;-74
2021/07/04 07:30:10;;;;;;;2.13;1.67;;;33.30;45.00;;;;;;5012579;28;20029;-74
2021/07/04 07:32:36;;;;;;;2.33;1.70;;;33.30;44.60;;;;;;5012792;28;20030;-74
2021/07/04 07:35:04;;;;;;;2.85;1.83;;;33.30;45.10;;;;;;5012268;28;20021;-74
2021/07/04 07:37:30;;;;;;;2.08;1.58;;;33.30;44.50;;;;;;5012714;28;20359;-74
2021/07/04 07:39:55;;;;;;;2.47;1.73;;;33.10;45.10;;;;;;5012280;28;20033;-74
2021/07/04 07:42:21;;;;;;;5.93;1.90;;;33.20;44.90;;;;;;5012555;28;20120;-74
2021/07/04 07:44:47;;;;;;;2.00;1.35;;;33.10;43.90;;;;;;5012519;28;20026;-73
2021/07/04 07:47:13;;;;;;;4.03;1.33;;;33.00;44.00;;;;;;5012392;28;20432;-74
2021/07/04 07:49:39;;;;;;;3.95;1.50;;;32.90;43.10;;;;;;5012183;28;20492;-74
2021/07/04 07:52:05;;;;;;;2.00;1.60;;;32.70;42.80;;;;;;5012157;28;20041;-74
2021/07/04 07:54:31;;;;;;;2.67;1.60;;;32.60;43.10;;;;;;5012036;28;20042;-74
2021/07/04 07:56:57;;;;;;;2.00;1.48;;;32.50;43.30;;;;;;5012488;28;20099;-74
2021/07/04 07:59:27;;;;;;;1.10;1.00;;;32.50;42.80;;;;;;5012111;28;20478;-74
2021/07/04 08:01:53;;;;;;;1.42;1.27;;;32.50;42.50;;;;;;5012227;28;20212;-74
2021/07/04 08:04:19;;;;;;;1.90;1.38;;;32.40;41.60;;;;;;5012074;28;20181;-74
2021/07/04 08:06:45;;;;;;;1.98;1.33;;;32.30;42.00;;;;;;5012135;28;20386;-74
2021/07/04 08:09:10;;;;;;;2.83;1.40;;;32.40;42.70;;;;;;5011909;28;20022;-74
2021/07/04 08:11:36;;;;;;;3.40;1.80;;;32.40;42.80;;;;;;5012063;28;20029;-74
2021/07/04 08:14:02;;;;;;;2.15;1.55;;;32.40;43.00;;;;;;5012322;28;20417;-74
2021/07/04 08:16:27;;;;;;;2.03;1.35;;;32.20;42.40;;;;;;5012010;28;20482;-74
2021/07/04 08:18:53;;;;;;;1.40;1.30;;;32.20;43.10;;;;;;5011999;28;20100;-74
2021/07/04 08:21:19;;;;;;;2.78;1.08;;;32.20;43.10;;;;;;5012055;28;20117;-74
2021/07/04 08:23:45;;;;;;;1.45;1.23;;;32.20;43.40;;;;;;5015420;28;20022;-74
2021/07/04 08:26:11;;;;;;;5.38;1.50;;;32.10;43.60;;;;;;5015511;28;20042;-74
2021/07/04 08:28:36;;;;;;;2.38;1.70;;;32.00;43.50;;;;;;5016038;28;20030;-74
2021/07/04 08:31:03;;;;;;;2.55;1.70;;;31.90;44.30;;;;;;5015786;28;20029;-74
2021/07/04 08:33:29;;;;;;;2.97;1.55;;;31.90;44.50;;;;;;5016001;28;20045;-74
2021/07/04 08:35:55;;;;;;;2.03;1.50;;;31.90;43.90;;;;;;5015926;28;20474;-74
2021/07/04 08:38:21;;;;;;;3.45;1.75;;;31.80;44.70;;;;;;4997866;28;20022;-73
2021/07/04 08:40:48;;;;;;;4.47;1.70;;;31.90;44.20;;;;;;5015573;28;20041;-74
2021/07/04 08:43:28;;;;;;;1.83;1.60;;;31.90;44.80;;;;;;4997855;28;20041;-74
2021/07/04 08:45:54;;;;;;;3.25;1.40;;;31.80;44.50;;;;;;5015481;28;20080;-74
2021/07/04 08:48:20;;;;;;;3.25;1.50;;;31.90;45.60;;;;;;5015286;28;20079;-74
2021/07/04 08:50:46;;;;;;;1.70;1.60;;;31.90;45.10;;;;;;5015319;28;20104;-74
2021/07/04 08:53:11;;;;;;;4.38;1.80;;;32.00;45.60;;;;;;5014944;28;20513;-74
2021/07/04 08:55:37;;;;;;;2.00;1.65;;;32.00;45.50;;;;;;5015261;28;20026;-74
2021/07/04 08:58:03;;;;;;;1.65;1.55;;;31.90;45.10;;;;;;5015367;28;20026;-74
2021/07/04 09:00:29;;;;;;;3.42;1.90;;;32.00;45.50;;;;;;5015094;28;20069;-73
2021/07/04 09:02:54;;;;;;;2.25;1.85;;;32.00;46.20;;;;;;5015475;28;20129;-74
2021/07/04 09:05:20;;;;;;;6.45;1.80;;;31.90;45.80;;;;;;5014996;28;20478;-74
2021/07/04 09:07:47;;;;;;;3.28;1.88;;;32.00;45.80;;;;;;5015145;28;20057;-73
2021/07/04 09:10:19;;;;;;;2.38;1.55;;;32.00;45.50;;;;;;5014799;28;20037;-74
2021/07/04 09:12:51;;;;;;;2.72;1.73;;;32.00;45.70;;;;;;5015001;28;20482;-73
2021/07/04 09:15:18;;;;;;;2.53;1.70;;;32.00;45.60;;;;;;5015098;28;20432;-74
2021/07/04 09:17:46;;;;;;;3.72;1.92;;;32.00;45.60;;;;;;5015241;28;20017;-74
2021/07/04 09:20:18;;;;;;;4.13;1.88;;;32.00;45.50;;;;;;5014701;28;20033;-74
2021/07/04 09:22:47;;;;;;;2.40;2.00;;;32.00;46.20;;;;;;5014913;28;20030;-74
2021/07/04 09:25:14;;;;;;;2.83;1.90;;;32.00;46.40;;;;;;5014564;28;20481;-74
2021/07/04 09:27:43;;;;;;;2.95;1.40;;;32.00;45.80;;;;;;5015292;28;20065;-73
2021/07/04 09:30:12;;;;;;;5.93;1.97;;;31.90;45.90;;;;;;5014579;28;20045;-75
2021/07/04 09:32:37;;;;;;;7.20;2.05;;;32.00;45.70;;;;;;5014732;28;20109;-74
2021/07/04 09:35:11;;;;;;;2.78;2.00;;;32.10;45.30;;;;;;5013700;28;20113;-73
2021/07/04 09:37:45;;;;;;;2.97;1.98;;;32.10;45.80;;;;;;5014751;28;20101;-74
2021/07/04 09:40:26;;;;;;;3.15;1.90;;;32.00;45.90;;;;;;5014588;28;20109;-74
2021/07/04 09:42:52;;;;;;;3.00;1.83;;;32.00;45.50;;;;;;4996862;28;20026;-73
2021/07/04 09:45:19;;;;;;;3.38;1.88;;;32.00;45.30;;;;;;5014424;28;20121;-74
2021/07/04 09:47:57;;;;;;;4.78;1.70;;;32.10;45.00;;;;;;5014494;28;20096;-74
2021/07/04 09:50:24;;;;;;;3.67;2.20;;;32.10;46.60;;;;;;5014447;28;20054;-73
2021/07/04 09:52:58;;;;;;;3.40;2.20;;;32.00;45.30;;;;;;5014027;28;20046;-73
2021/07/04 09:55:24;;;;;;;4.20;2.03;;;32.00;44.10;;;;;;5014088;28;20022;-74
2021/07/04 09:58:01;;;;;;;4.25;2.00;;;32.00;45.00;;;;;;5014239;28;20090;-74
2021/07/04 10:00:33;;;;;;;2.72;2.03;;;32.10;44.20;;;;;;5013866;28;20640;-74
2021/07/04 10:03:10;;;;;;;2.42;1.67;;;32.20;44.30;;;;;;5014198;28;20026;-74
2021/07/04 10:05:39;;;;;;;3.15;1.65;;;32.40;43.70;;;;;;5013950;28;20058;-74
2021/07/04 10:08:31;;;;;;;5.90;2.17;;;32.40;43.40;;;;;;5014229;28;20109;-74
2021/07/04 10:11:13;;;;;;;3.13;2.03;;;32.40;41.50;;;;;;5009185;28;20505;-74
2021/07/04 10:13:43;;;;;;;5.10;2.10;;;32.20;42.50;;;;;;5013768;28;20497;-74
2021/07/04 10:16:17;;;;;;;4.53;1.98;;;32.20;43.40;;;;;;5013663;28;20371;-73
2021/07/04 10:18:46;;;;;;;15.68;2.38;;;32.30;42.90;;;;;;5013750;28;20022;-73
2021/07/04 10:21:13;;;;;;;9.40;1.80;;;32.30;43.20;;;;;;5013751;28;20139;-74
2021/07/04 10:23:45;;;;;;;3.53;1.88;;;32.30;43.50;;;;;;5013996;28;20172;-74
2021/07/04 10:26:11;;;;;;;4.25;1.95;;;32.30;42.90;;;;;;5013413;28;20037;-74
2021/07/04 10:28:39;;;;;;;2.25;1.85;;;32.30;43.10;;;;;;5013626;28;20555;-74
2021/07/04 10:31:11;;;;;;;1.98;1.60;;;32.30;42.80;;;;;;5013406;28;20511;-73
2021/07/04 10:33:37;;;;;;;2.30;1.75;;;32.30;42.90;;;;;;5013875;28;20052;-74
2021/07/04 10:36:20;;;;;;;2.10;1.90;;;32.20;42.60;;;;;;5013312;28;20080;-73
2021/07/04 10:38:45;;;;;;;3.03;2.10;;;32.00;42.70;;;;;;5013350;28;20489;-73
2021/07/04 10:41:13;;;;;;;2.38;1.83;;;32.00;43.50;;;;;;5013446;28;20037;-74
2021/07/04 10:44:00;;;;;;;3.35;2.00;;;31.80;43.30;;;;;;5013218;28;20469;-74
2021/07/04 10:46:43;;;;;;;3.08;2.00;;;31.70;43.50;;;;;;5012702;28;20026;-74
2021/07/04 10:49:16;;;;;;;2.20;1.85;;;31.70;43.70;;;;;;5013409;28;20030;-73
2021/07/04 10:51:58;;;;;;;3.00;1.77;;;31.60;43.50;;;;;;5013317;28;20060;-74
2021/07/04 10:54:51;;;;;;;2.63;2.00;;;31.50;44.00;;;;;;5012651;28;20048;-73
2021/07/04 10:57:51;;;;;;;2.10;1.60;;;31.50;44.00;;;;;;5009416;28;20394;-74
2021/07/04 11:00:20;;;;;;;8.15;2.17;;;31.40;44.80;;;;;;5012990;28;20200;-74
2021/07/04 11:02:49;;;;;;;3.17;1.70;;;31.50;45.20;;;;;;5013018;28;20029;-74
2021/07/04 11:05:36;;;;;;;3.75;2.08;;;31.50;44.80;;;;;;5012813;28;20433;-73
2021/07/04 11:08:01;;;;;;;2.38;1.90;;;31.60;44.80;;;;;;4996093;28;20037;-73
2021/07/04 11:10:36;;;;;;;3.45;2.03;;;31.50;44.50;;;;;;5012716;28;20362;-74
2021/07/04 11:13:08;;;;;;;2.80;1.92;;;31.40;44.90;;;;;;5012868;28;20025;-73
2021/07/04 11:15:35;;;;;;;9.55;2.58;;;31.50;45.60;;;;;;5012388;28;20057;-73
2021/07/04 11:18:02;;;;;;;4.97;2.00;;;31.60;45.10;;;;;;5012679;28;20097;-74
2021/07/04 11:20:50;;;;;;;2.60;1.88;;;31.50;44.80;;;;;;5012669;28;20096;-74
2021/07/04 11:23:36;;;;;;;3.10;2.00;;;31.50;45.30;;;;;;5012469;28;20103;-73
2021/07/04 11:26:08;;;;;;;2.10;1.67;;;31.60;45.30;;;;;;5012698;28;20397;-74
2021/07/04 11:28:47;;;;;;;3.10;1.90;;;31.50;45.60;;;;;;5012661;28;20025;-74
2021/07/04 11:31:13;;;;;;;3.58;1.77;;;31.50;44.60;;;;;;5012306;28;20041;-74
2021/07/04 11:33:47;;;;;;;4.40;1.85;;;31.50;44.60;;;;;;5012582;28;20022;-73
2021/07/04 11:36:15;;;;;;;22.60;2.47;;;31.50;45.10;;;;;;5012271;28;20025;-73
2021/07/04 11:38:50;;;;;;;4.80;1.67;;;31.40;45.20;;;;;;5012426;28;20097;-73
2021/07/04 11:41:30;;;;;;;2.83;1.65;;;31.40;43.70;;;;;;5012504;28;20026;-73
2021/07/04 11:44:10;;;;;;;2.28;1.70;;;31.30;43.70;;;;;;5012551;28;20080;-74
2021/07/04 11:46:39;;;;;;;4.97;1.95;;;31.20;44.00;;;;;;5011964;28;20397;-74
2021/07/04 11:49:09;;;;;;;5.25;1.92;;;31.10;44.30;;;;;;5012222;28;20044;-73
2021/07/04 11:51:38;;;;;;;4.75;2.00;;;31.20;44.30;;;;;;5012140;28;20133;-73
2021/07/04 11:54:25;;;;;;;1.83;1.65;;;31.20;44.70;;;;;;5011971;28;20048;-73
2021/07/04 11:57:29;;;;;;;3.85;1.40;;;31.30;44.00;;;;;;5011615;28;20029;-74
2021/07/04 11:59:59;;;;;;;4.07;1.50;;;31.30;42.70;;;;;;5011912;28;20026;-74
2021/07/04 12:02:25;;;;;;;2.60;1.75;;;31.20;42.80;;;;;;5012248;28;20022;-73
2021/07/04 12:04:52;;;;;;;3.30;1.60;;;31.30;43.00;;;;;;5012126;28;20092;-74
2021/07/04 12:07:23;;;;;;;4.15;1.52;;;31.30;42.80;;;;;;5011945;28;20028;-73
2021/07/04 12:09:51;;;;;;;2.97;1.83;;;31.20;41.50;;;;;;5012319;28;20109;-73
2021/07/04 12:12:25;;;;;;;9.40;1.88;;;31.10;41.80;;;;;;5011913;28;20053;-73
2021/07/04 12:14:56;;;;;;;2.75;1.52;;;31.00;42.20;;;;;;5011969;28;20385;-74
2021/07/04 12:17:26;;;;;;;2.75;1.55;;;30.90;41.30;;;;;;5012008;28;20053;-73
2021/07/04 12:20:13;;;;;;;2.38;1.60;;;30.80;42.30;;;;;;5012133;28;20029;-74
2021/07/04 12:22:50;;;;;;;3.65;1.70;;;30.90;41.80;;;;;;5011789;28;20032;-73
2021/07/04 12:25:31;;;;;;;3.97;1.42;;;30.80;41.50;;;;;;5011655;28;20494;-73
2021/07/04 12:28:03;;;;;;;7.85;2.25;;;30.70;41.50;;;;;;5011870;28;20030;-73
2021/07/04 12:30:37;;;;;;;3.72;1.60;;;30.70;42.00;;;;;;5011739;28;20572;-74
2021/07/04 12:33:32;;;;;;;3.10;1.60;;;30.70;41.20;;;;;;5011779;28;20057;-74
2021/07/04 12:36:07;;;;;;;6.38;1.70;;;30.60;41.20;;;;;;5011759;28;20030;-74
2021/07/04 12:38:38;;;;;;;22.40;2.30;;;30.60;40.80;;;;;;5011588;28;20034;-73
2021/07/04 12:41:05;;;;;;;1.73;1.40;;;30.60;41.20;;;;;;5011532;28;20025;-74
2021/07/04 12:43:37;;;;;;;8.20;1.85;;;30.60;41.70;;;;;;5011598;28;20105;-74
2021/07/04 12:46:18;;;;;;;2.80;1.40;;;30.60;40.70;;;;;;5011479;28;20048;-74
2021/07/04 12:48:46;;;;;;;3.22;1.80;;;30.60;40.40;;;;;;5011693;28;20037;-73
2021/07/04 12:51:12;;;;;;;2.33;1.60;;;30.60;40.80;;;;;;5011463;28;20105;-74
2021/07/04 12:53:46;;;;;;;3.25;1.40;;;30.60;40.80;;;;;;5011238;28;20498;-74
2021/07/04 12:56:36;;;;;;;2.33;1.45;;;30.60;40.90;;;;;;5011532;28;20493;-73
2021/07/04 12:59:06;;;;;;;4.38;1.52;;;30.60;40.90;;;;;;5011682;28;20042;-73
2021/07/04 13:01:35;;;;;;;3.45;1.65;;;30.60;40.50;;;;;;5011563;28;20034;-74
2021/07/04 13:04:04;;;;;;;4.17;1.37;;;30.60;40.70;;;;;;5011644;28;20026;-73
2021/07/04 13:06:50;;;;;;;5.13;1.65;;;30.50;40.70;;;;;;5011356;28;20044;-74
2021/07/04 13:09:39;;;;;;;1.88;1.65;;;30.50;41.40;;;;;;5013995;28;20033;-74
2021/07/04 13:12:31;;;;;;;3.78;1.80;;;30.50;41.40;;;;;;4997827;28;20122;-74
2021/07/04 13:14:59;;;;;;;4.07;1.70;;;30.40;41.20;;;;;;5010204;28;20045;-73
2021/07/04 13:17:44;;;;;;;1.95;1.60;;;30.30;41.90;;;;;;5014869;28;20030;-74
2021/07/04 13:20:13;;;;;;;2.42;1.75;;;30.40;41.90;;;;;;5014901;28;20030;-74
2021/07/04 13:22:41;;;;;;;2.67;1.63;;;30.30;42.00;;;;;;5014711;28;20438;-73
2021/07/04 13:25:30;;;;;;;8.30;2.05;;;30.30;42.20;;;;;;5014707;28;20056;-73
2021/07/04 13:28:16;;;;;;;2.40;1.75;;;30.30;42.30;;;;;;5014740;28;20056;-74